Time;durP1;ratioP1;P1;durP2;ratioP2;P2;SDS_P1;SDS_P2;PMS_P1;PMS_P2;Temp;Humidity;BMP_temperature;BMP_pressure;BME280_temperature;BME280_humidity;BME280_pressure;Samples;Min_cycle;Max_cycle;Signal;HPM_P1;HPM_P2
2023/09/05 00:01:32;;;;;;;13.68;9.25;;;;;;;;;;4991391;28;20478;-72
2023/09/05 00:03:58;;;;;;;19.17;10.80;;;;;;;;;;4976749;28;20092;-73
2023/09/05 00:06:24;;;;;;;22.73;15.73;;;;;;;;;;4976497;28;20034;-71
2023/09/05 00:08:50;;;;;;;18.52;12.40;;;;;;;;;;4993213;28;20116;-72
2023/09/05 00:11:16;;;;;;;15.02;10.63;;;;;;;;;;4993837;28;20034;-72
2023/09/05 00:13:42;;;;;;;17.33;11.13;;;;;;;;;;4993926;28;20162;-73
2023/09/05 00:16:08;;;;;;;14.15;10.20;;;;;;;;;;4993788;28;20026;-73
2023/09/05 00:18:34;;;;;;;18.20;10.85;;;;;;;;;;4991502;28;20045;-73
2023/09/05 00:21:00;;;;;;;12.13;7.78;;;;;;;;;;4995497;28;20040;-72
2023/09/05 00:23:26;;;;;;;16.20;8.43;;;;;;;;;;4996291;28;20038;-72
2023/09/05 00:25:52;;;;;;;8.63;6.75;;;;;;;;;;4945628;28;20254;-73
2023/09/05 00:28:19;;;;;;;7.45;6.45;;;;;;;;;;4976259;28;20132;-72
2023/09/05 00:30:45;;;;;;;6.95;6.22;;;;;;;;;;4976182;28;20065;-73
2023/09/05 00:33:11;;;;;;;11.57;7.30;;;;;;;;;;4993317;28;20093;-73
2023/09/05 00:35:37;;;;;;;8.98;7.40;;;;;;;;;;4993317;28;20038;-73
2023/09/05 00:38:04;;;;;;;13.40;8.13;;;;;;;;;;4993325;28;20030;-73
2023/09/05 00:40:30;;;;;;;10.95;8.65;;;;;;;;;;4976005;28;20038;-72
2023/09/05 00:42:56;;;;;;;10.02;9.07;;;;;;;;;;4976088;28;20065;-74
2023/09/05 00:45:22;;;;;;;16.83;10.45;;;;;;;;;;4975679;28;20392;-71
2023/09/05 00:47:48;;;;;;;10.93;8.38;;;;;;;;;;4959860;28;20047;-72
2023/09/05 00:50:17;;;;;;;9.63;8.73;;;;;;;;;;4993395;28;20437;-72
2023/09/05 00:52:45;;;;;;;9.55;8.75;;;;;;;;;;4976794;28;20038;-72
2023/09/05 00:55:11;;;;;;;8.88;7.97;;;;;;;;;;4993582;28;20046;-72
2023/09/05 00:57:37;;;;;;;11.20;8.02;;;;;;;;;;4975257;28;20145;-72
2023/09/05 01:00:05;;;;;;;8.60;7.25;;;;;;;;;;4943592;28;20178;-72
2023/09/05 01:02:31;;;;;;;10.43;6.60;;;;;;;;;;4974525;28;20039;-73
2023/09/05 01:04:57;;;;;;;10.15;8.63;;;;;;;;;;4992852;28;20077;-72
2023/09/05 01:07:32;;;;;;;9.18;6.30;;;;;;;;;;4973464;28;20042;-72
2023/09/05 01:10:03;;;;;;;6.53;6.00;;;;;;;;;;4982400;28;20265;-73
2023/09/05 01:12:29;;;;;;;8.68;6.00;;;;;;;;;;4975575;28;20520;-72
2023/09/05 01:14:56;;;;;;;11.30;6.05;;;;;;;;;;4975565;28;20090;-72
2023/09/05 01:17:22;;;;;;;12.05;6.75;;;;;;;;;;4954837;28;20038;-73
2023/09/05 01:19:50;;;;;;;8.10;6.10;;;;;;;;;;4951076;28;20148;-73
2023/09/05 01:22:24;;;;;;;7.35;6.60;;;;;;;;;;4959960;28;20042;-71
2023/09/05 01:24:50;;;;;;;13.57;6.40;;;;;;;;;;4992798;28;20491;-73
2023/09/05 01:27:19;;;;;;;11.73;6.88;;;;;;;;;;4992504;28;20030;-75
2023/09/05 01:29:46;;;;;;;13.43;8.15;;;;;;;;;;4992498;28;20046;-73
2023/09/05 01:32:12;;;;;;;9.93;7.45;;;;;;;;;;4968932;28;20206;-73
2023/09/05 01:34:38;;;;;;;11.35;6.90;;;;;;;;;;4968172;28;20094;-73
2023/09/05 01:37:06;;;;;;;7.97;6.32;;;;;;;;;;4946675;28;20521;-72
2023/09/05 01:39:32;;;;;;;8.05;6.30;;;;;;;;;;4975096;28;20034;-74
2023/09/05 01:41:59;;;;;;;12.77;6.65;;;;;;;;;;4975184;28;20034;-73
2023/09/05 01:44:25;;;;;;;8.50;6.05;;;;;;;;;;4974892;28;20088;-73
2023/09/05 01:46:51;;;;;;;12.35;7.13;;;;;;;;;;4975153;28;20038;-75
2023/09/05 01:49:17;;;;;;;11.27;6.65;;;;;;;;;;4974794;28;20093;-72
2023/09/05 01:51:44;;;;;;;11.48;6.60;;;;;;;;;;4974902;28;20138;-73
2023/09/05 01:54:10;;;;;;;11.40;6.57;;;;;;;;;;4992089;28;20038;-72
2023/09/05 01:56:36;;;;;;;9.90;6.07;;;;;;;;;;4991867;28;20034;-73
2023/09/05 01:59:03;;;;;;;10.98;8.70;;;;;;;;;;4974786;28;20042;-73
2023/09/05 02:01:29;;;;;;;22.15;15.10;;;;;;;;;;4974401;28;20098;-73
2023/09/05 02:03:55;;;;;;;12.40;10.57;;;;;;;;;;4990874;28;20466;-74
2023/09/05 02:06:21;;;;;;;11.43;7.40;;;;;;;;;;4990566;28;20121;-72
2023/09/05 02:08:47;;;;;;;7.05;6.40;;;;;;;;;;4991700;28;20141;-74
2023/09/05 02:11:14;;;;;;;9.43;6.68;;;;;;;;;;4955254;28;20443;-73
2023/09/05 02:13:41;;;;;;;11.73;6.53;;;;;;;;;;4984996;28;20478;-72
2023/09/05 02:16:07;;;;;;;7.05;6.25;;;;;;;;;;4974316;28;20353;-72
2023/09/05 02:18:33;;;;;;;7.63;6.20;;;;;;;;;;4973905;28;20100;-73
2023/09/05 02:21:00;;;;;;;7.55;6.05;;;;;;;;;;4974369;28;20422;-72
2023/09/05 02:23:26;;;;;;;13.02;7.55;;;;;;;;;;4978536;28;20582;-73
2023/09/05 02:25:58;;;;;;;6.82;6.22;;;;;;;;;;4958285;28;20554;-72
2023/09/05 02:28:25;;;;;;;13.15;10.10;;;;;;;;;;4973543;28;20048;-74
2023/09/05 02:30:51;;;;;;;11.45;8.10;;;;;;;;;;4974171;28;20030;-72
2023/09/05 02:33:19;;;;;;;11.80;8.63;;;;;;;;;;4961100;28;20546;-73
2023/09/05 02:35:48;;;;;;;11.82;6.90;;;;;;;;;;4974329;28;20045;-72
2023/09/05 02:38:14;;;;;;;10.02;6.70;;;;;;;;;;4991449;28;20097;-72
2023/09/05 02:40:47;;;;;;;10.10;6.50;;;;;;;;;;4957458;28;20133;-71
2023/09/05 02:43:13;;;;;;;8.93;6.90;;;;;;;;;;4989865;28;20038;-72
2023/09/05 02:45:39;;;;;;;13.30;6.55;;;;;;;;;;4973457;28;20414;-72
2023/09/05 02:48:05;;;;;;;7.38;6.75;;;;;;;;;;4973919;28;20046;-73
2023/09/05 02:50:32;;;;;;;10.35;6.68;;;;;;;;;;4990793;28;20045;-73
2023/09/05 02:52:58;;;;;;;8.05;6.45;;;;;;;;;;4973735;28;20181;-73
2023/09/05 02:55:24;;;;;;;9.38;6.85;;;;;;;;;;4973374;28;20117;-73
2023/09/05 02:57:51;;;;;;;7.85;6.10;;;;;;;;;;4990810;28;20054;-72
2023/09/05 03:00:19;;;;;;;7.15;6.40;;;;;;;;;;4956760;28;20057;-73
2023/09/05 03:02:49;;;;;;;7.57;6.28;;;;;;;;;;4990399;28;20034;-73
2023/09/05 03:05:16;;;;;;;7.55;6.55;;;;;;;;;;4973430;28;20046;-71
2023/09/05 03:07:44;;;;;;;15.60;6.90;;;;;;;;;;4973173;28;20038;-72
2023/09/05 03:10:10;;;;;;;6.50;5.88;;;;;;;;;;4940534;28;20069;-73
2023/09/05 03:12:36;;;;;;;7.93;6.15;;;;;;;;;;4990397;28;20137;-71
2023/09/05 03:15:02;;;;;;;6.55;5.55;;;;;;;;;;4990701;28;20544;-72
2023/09/05 03:17:30;;;;;;;6.43;5.25;;;;;;;;;;4972072;28;20516;-72
2023/09/05 03:19:57;;;;;;;7.25;5.60;;;;;;;;;;4945602;28;20594;-73
2023/09/05 03:22:23;;;;;;;10.27;7.38;;;;;;;;;;4971486;28;20542;-73
2023/09/05 03:24:49;;;;;;;9.63;5.95;;;;;;;;;;4972472;28;20410;-73
2023/09/05 03:27:15;;;;;;;8.07;5.20;;;;;;;;;;4990549;28;20038;-72
2023/09/05 03:29:42;;;;;;;6.13;5.28;;;;;;;;;;4956683;28;20122;-72
2023/09/05 03:32:08;;;;;;;10.48;5.88;;;;;;;;;;4954093;28;20054;-73
2023/09/05 03:34:34;;;;;;;9.00;5.88;;;;;;;;;;4983701;28;20617;-73
2023/09/05 03:37:01;;;;;;;10.80;5.22;;;;;;;;;;4973006;28;20044;-73
2023/09/05 03:39:26;;;;;;;9.52;5.70;;;;;;;;;;4983702;28;20045;-73
2023/09/05 03:41:53;;;;;;;7.30;5.38;;;;;;;;;;4971421;28;20030;-72
2023/09/05 03:44:18;;;;;;;9.35;5.10;;;;;;;;;;4990593;28;20038;-72
2023/09/05 03:46:44;;;;;;;7.75;4.93;;;;;;;;;;4991303;28;20522;-72
2023/09/05 03:49:11;;;;;;;11.05;5.65;;;;;;;;;;4992764;28;20042;-71
2023/09/05 03:51:37;;;;;;;6.40;5.65;;;;;;;;;;4992060;28;20037;-72
2023/09/05 03:54:03;;;;;;;10.15;5.18;;;;;;;;;;4937910;28;20038;-73
2023/09/05 03:56:30;;;;;;;7.85;5.30;;;;;;;;;;4988050;28;20022;-72
2023/09/05 03:58:56;;;;;;;6.60;5.70;;;;;;;;;;4979038;28;20053;-73
2023/09/05 04:01:22;;;;;;;13.57;5.07;;;;;;;;;;4988474;28;20034;-72
2023/09/05 04:03:50;;;;;;;8.45;5.45;;;;;;;;;;4972809;28;20034;-73
2023/09/05 04:06:17;;;;;;;7.10;5.05;;;;;;;;;;4956775;28;20035;-72
2023/09/05 04:08:43;;;;;;;7.22;5.63;;;;;;;;;;4972453;28;20057;-74
2023/09/05 04:11:09;;;;;;;7.68;5.32;;;;;;;;;;4972576;28;20026;-73
2023/09/05 04:13:35;;;;;;;7.93;5.63;;;;;;;;;;4972721;28;20534;-73
2023/09/05 04:16:05;;;;;;;6.53;5.25;;;;;;;;;;4971989;28;20066;-73
2023/09/05 04:18:32;;;;;;;;;;;;;;;;;;4990539;28;20043;-73
2023/09/05 04:20:58;;;;;;;10.55;5.63;;;;;;;;;;4990074;28;19921;-74
2023/09/05 04:23:24;;;;;;;12.35;5.78;;;;;;;;;;4990118;28;20034;-73
2023/09/05 04:26:01;;;;;;;10.55;5.43;;;;;;;;;;4967415;28;20027;-73
2023/09/05 04:28:28;;;;;;;6.07;4.85;;;;;;;;;;4972584;28;20046;-74
2023/09/05 04:30:55;;;;;;;15.05;5.18;;;;;;;;;;4954572;28;20388;-73
2023/09/05 04:33:22;;;;;;;9.85;5.60;;;;;;;;;;4975918;28;20034;-74
2023/09/05 04:35:49;;;;;;;7.72;6.07;;;;;;;;;;4972054;28;20038;-72
2023/09/05 04:38:15;;;;;;;10.35;6.00;;;;;;;;;;4958493;28;20030;-74
2023/09/05 04:40:40;;;;;;;6.82;6.15;;;;;;;;;;4975631;28;20422;-74
2023/09/05 04:43:06;;;;;;;8.23;5.65;;;;;;;;;;4976073;28;20112;-73
2023/09/05 04:45:32;;;;;;;9.05;5.50;;;;;;;;;;4993165;28;20130;-74
2023/09/05 04:47:58;;;;;;;6.82;5.30;;;;;;;;;;4975852;28;20680;-71
2023/09/05 04:50:25;;;;;;;9.15;5.70;;;;;;;;;;4962981;28;20309;-73
2023/09/05 04:52:51;;;;;;;5.85;5.25;;;;;;;;;;4993233;28;20124;-74
2023/09/05 04:55:17;;;;;;;6.25;5.45;;;;;;;;;;4993031;28;20034;-74
2023/09/05 04:57:44;;;;;;;9.98;5.93;;;;;;;;;;4992929;28;20141;-75
2023/09/05 05:00:13;;;;;;;7.22;5.60;;;;;;;;;;4975779;28;20072;-73
2023/09/05 05:02:39;;;;;;;8.15;5.97;;;;;;;;;;4993081;28;20137;-75
2023/09/05 05:05:06;;;;;;;13.60;5.15;;;;;;;;;;4975983;28;20088;-75
2023/09/05 05:07:32;;;;;;;11.65;5.80;;;;;;;;;;4975406;28;20108;-74
2023/09/05 05:09:58;;;;;;;8.98;5.45;;;;;;;;;;4993029;28;20426;-74
2023/09/05 05:12:24;;;;;;;20.77;5.40;;;;;;;;;;4970552;28;20035;-75
2023/09/05 05:14:50;;;;;;;7.57;5.15;;;;;;;;;;4991752;28;20034;-72
2023/09/05 05:17:17;;;;;;;15.05;5.50;;;;;;;;;;4954416;28;20041;-74
2023/09/05 05:19:43;;;;;;;13.25;5.30;;;;;;;;;;4991779;28;20038;-74
2023/09/05 05:22:10;;;;;;;12.20;5.38;;;;;;;;;;4958376;28;20569;-73
2023/09/05 05:24:39;;;;;;;16.10;5.22;;;;;;;;;;4958279;28;20037;-74
2023/09/05 05:27:05;;;;;;;9.60;5.13;;;;;;;;;;4974191;28;20036;-74
2023/09/05 05:29:32;;;;;;;6.93;5.05;;;;;;;;;;4991564;28;20054;-74
2023/09/05 05:32:00;;;;;;;8.88;5.05;;;;;;;;;;4974154;28;20100;-73
2023/09/05 05:34:26;;;;;;;9.15;5.10;;;;;;;;;;4974406;28;20557;-73
2023/09/05 05:36:52;;;;;;;7.55;4.45;;;;;;;;;;4991293;28;20741;-73
2023/09/05 05:39:22;;;;;;;7.53;4.68;;;;;;;;;;4991633;28;20034;-72
2023/09/05 05:41:48;;;;;;;8.23;4.47;;;;;;;;;;4991213;28;20034;-73
2023/09/05 05:44:15;;;;;;;12.38;5.05;;;;;;;;;;4991771;28;20065;-73
2023/09/05 05:46:43;;;;;;;5.75;4.78;;;;;;;;;;4955689;28;20079;-74
2023/09/05 05:49:10;;;;;;;9.27;4.40;;;;;;;;;;4983146;28;20132;-74
2023/09/05 05:51:37;;;;;;;5.72;4.43;;;;;;;;;;4973907;28;20065;-73
2023/09/05 05:54:03;;;;;;;7.15;4.05;;;;;;;;;;4958403;28;20045;-73
2023/09/05 05:56:30;;;;;;;8.38;4.13;;;;;;;;;;4973939;28;20406;-74
2023/09/05 05:58:56;;;;;;;9.25;4.20;;;;;;;;;;4973920;28;20038;-74
2023/09/05 06:01:22;;;;;;;5.65;3.85;;;;;;;;;;4984825;28;20034;-74
2023/09/05 06:03:48;;;;;;;6.18;4.00;;;;;;;;;;4973904;28;20037;-73
2023/09/05 06:06:14;;;;;;;6.05;4.15;;;;;;;;;;4957181;28;20027;-74
2023/09/05 06:08:40;;;;;;;4.57;3.70;;;;;;;;;;4973325;28;20074;-73
2023/09/05 06:11:07;;;;;;;6.05;4.05;;;;;;;;;;4978481;28;20033;-73
2023/09/05 06:13:33;;;;;;;7.03;3.80;;;;;;;;;;4964481;28;20057;-75
2023/09/05 06:15:59;;;;;;;8.25;3.65;;;;;;;;;;4973529;28;20550;-74
2023/09/05 06:18:25;;;;;;;6.47;3.83;;;;;;;;;;4941862;28;20538;-72
2023/09/05 06:20:51;;;;;;;5.05;3.65;;;;;;;;;;4973258;28;20037;-73
2023/09/05 06:23:17;;;;;;;7.07;3.58;;;;;;;;;;4973584;28;20124;-74
2023/09/05 06:25:44;;;;;;;9.80;3.30;;;;;;;;;;4973227;28;20498;-75
2023/09/05 06:28:10;;;;;;;2.85;2.65;;;;;;;;;;4973620;28;20549;-74
2023/09/05 06:30:36;;;;;;;5.95;2.80;;;;;;;;;;4966522;28;20499;-75
2023/09/05 06:33:03;;;;;;;4.00;3.28;;;;;;;;;;4954121;28;20101;-74
2023/09/05 06:35:29;;;;;;;3.35;3.05;;;;;;;;;;4990845;28;20040;-75
2023/09/05 06:37:55;;;;;;;4.90;3.38;;;;;;;;;;4973308;28;20121;-75
2023/09/05 06:40:23;;;;;;;5.93;3.13;;;;;;;;;;4973556;28;20030;-75
2023/09/05 06:42:50;;;;;;;3.13;2.83;;;;;;;;;;4990254;28;20034;-74
2023/09/05 06:45:16;;;;;;;3.40;3.08;;;;;;;;;;4973275;28;20039;-74
2023/09/05 06:47:42;;;;;;;3.67;3.10;;;;;;;;;;4943713;28;20046;-73
2023/09/05 06:50:10;;;;;;;3.90;3.50;;;;;;;;;;4990466;28;20116;-74
2023/09/05 06:52:36;;;;;;;3.20;2.90;;;;;;;;;;4957416;28;20038;-74
2023/09/05 06:55:03;;;;;;;10.55;4.03;;;;;;;;;;4965547;28;20061;-75
2023/09/05 06:57:32;;;;;;;4.75;3.10;;;;;;;;;;4985214;28;20062;-75
2023/09/05 06:59:59;;;;;;;3.45;3.15;;;;;;;;;;4956365;28;20041;-72
2023/09/05 07:02:25;;;;;;;3.13;2.83;;;;;;;;;;4957746;28;20117;-72
2023/09/05 07:04:51;;;;;;;3.35;2.90;;;;;;;;;;4972766;28;20125;-71
2023/09/05 07:07:17;;;;;;;3.05;2.80;;;;;;;;;;4990338;28;20034;-73
2023/09/05 07:09:43;;;;;;;4.10;2.63;;;;;;;;;;4989877;28;20053;-70
2023/09/05 07:12:09;;;;;;;4.57;2.95;;;;;;;;;;4984061;28;20084;-70
2023/09/05 07:14:35;;;;;;;3.38;3.17;;;;;;;;;;4972446;28;20112;-70
2023/09/05 07:17:02;;;;;;;5.78;2.47;;;;;;;;;;4954390;28;20035;-72
2023/09/05 07:19:29;;;;;;;4.07;2.80;;;;;;;;;;4989764;28;20038;-73
2023/09/05 07:21:56;;;;;;;4.88;2.80;;;;;;;;;;5152145;23;20089;-80
2023/09/05 07:27:44;;;;;;;12.25;3.38;;;;;;;;;;5663698;23;20021;31
2023/09/05 07:32:59;;;;;;;3.83;2.83;;;;;;;;;;5993769;22;20269;-81
2023/09/05 07:35:25;;;;;;;5.15;2.60;;;;;;;;;;5011628;28;20034;-85
2023/09/05 07:37:51;;;;;;;5.97;2.67;;;;;;;;;;4969820;28;20044;-83
2023/09/05 07:40:17;;;;;;;5.88;2.60;;;;;;;;;;4984242;28;20042;-83
2023/09/05 07:42:44;;;;;;;2.65;2.45;;;;;;;;;;5001945;28;20038;-81
2023/09/05 07:45:10;;;;;;;2.97;2.20;;;;;;;;;;4979926;28;20507;-84
2023/09/05 07:47:36;;;;;;;3.97;2.83;;;;;;;;;;4995487;28;20155;-82
2023/09/05 07:50:03;;;;;;;4.07;2.55;;;;;;;;;;4958266;28;20084;-83
2023/09/05 07:52:31;;;;;;;2.42;2.22;;;;;;;;;;4975376;28;20038;-84
2023/09/05 07:54:57;;;;;;;3.78;2.28;;;;;;;;;;4986332;28;20051;-86
2023/09/05 07:57:23;;;;;;;2.50;2.30;;;;;;;;;;5000607;28;20514;-80
2023/09/05 07:59:50;;;;;;;2.85;2.58;;;;;;;;;;4976009;28;20041;-82
2023/09/05 08:02:16;;;;;;;5.15;2.83;;;;;;;;;;4977152;28;20128;-81
2023/09/05 08:04:42;;;;;;;5.05;2.60;;;;;;;;;;4975301;28;20426;-82
2023/09/05 08:07:08;;;;;;;7.47;3.50;;;;;;;;;;4996547;28;20026;-84
2023/09/05 08:09:34;;;;;;;5.93;3.50;;;;;;;;;;4940995;28;20082;-84
2023/09/05 08:12:01;;;;;;;6.00;3.40;;;;;;;;;;4965395;28;20233;-83
2023/09/05 08:14:28;;;;;;;10.15;5.07;;;;;;;;;;4980183;28;20045;-84
2023/09/05 08:16:54;;;;;;;12.30;4.97;;;;;;;;;;4994547;28;20034;-83
2023/09/05 08:19:20;;;;;;;6.28;4.82;;;;;;;;;;4965314;28;20039;-82
2023/09/05 08:21:47;;;;;;;5.43;3.60;;;;;;;;;;4960680;28;20155;-83
2023/09/05 08:24:12;;;;;;;9.05;3.80;;;;;;;;;;4956535;29;20039;-82
2023/09/05 08:26:39;;;;;;;5.53;3.60;;;;;;;;;;4956812;28;20034;-82
2023/09/05 08:29:06;;;;;;;5.35;3.17;;;;;;;;;;4980384;28;20070;-82
2023/09/05 08:31:32;;;;;;;6.28;3.28;;;;;;;;;;4957729;28;20050;-89
2023/09/05 08:33:59;;;;;;;3.50;3.17;;;;;;;;;;4953351;29;20059;-82
2023/09/05 08:36:25;;;;;;;4.82;3.35;;;;;;;;;;4965251;28;20039;-83
2023/09/05 08:38:51;;;;;;;4.72;3.10;;;;;;;;;;4992119;28;20122;-83
2023/09/05 08:41:18;;;;;;;5.28;3.15;;;;;;;;;;4991568;28;20035;-85
2023/09/05 08:43:45;;;;;;;4.00;3.13;;;;;;;;;;4973473;28;20034;-82
2023/09/05 08:46:12;;;;;;;7.65;2.92;;;;;;;;;;4991746;28;20067;-83
2023/09/05 08:48:38;;;;;;;4.03;2.75;;;;;;;;;;4965260;28;20026;-83
2023/09/05 08:51:05;;;;;;;7.60;3.65;;;;;;;;;;5009239;28;20030;-85
2023/09/05 08:53:35;;;;;;;4.15;3.55;;;;;;;;;;4958527;28;20073;-84
2023/09/05 08:56:01;;;;;;;8.18;4.20;;;;;;;;;;5001987;28;20553;-81
2023/09/05 08:58:27;;;;;;;9.35;3.47;;;;;;;;;;4948291;29;20037;-83
2023/09/05 09:00:54;;;;;;;3.80;3.35;;;;;;;;;;4979437;28;20499;-82
2023/09/05 09:03:20;;;;;;;3.83;3.45;;;;;;;;;;4962855;28;20121;-81
2023/09/05 09:05:46;;;;;;;7.65;3.40;;;;;;;;;;4959342;28;20509;-84
2023/09/05 09:08:13;;;;;;;6.63;3.20;;;;;;;;;;5002082;28;20071;-86
2023/09/05 09:10:40;;;;;;;8.82;3.45;;;;;;;;;;4978992;28;20024;-85
2023/09/05 09:13:14;;;;;;;5.03;3.10;;;;;;;;;;4967683;28;20716;-83
2023/09/05 09:15:43;;;;;;;7.68;3.67;;;;;;;;;;4985724;28;20038;-82
2023/09/05 09:18:12;;;;;;;7.55;3.90;;;;;;;;;;4989671;28;20026;-82
2023/09/05 09:20:45;;;;;;;10.70;3.78;;;;;;;;;;4989901;28;20522;-83
2023/09/05 09:23:11;;;;;;;6.32;3.90;;;;;;;;;;4957074;28;20126;-84
2023/09/05 09:25:47;;;;;;;4.75;3.83;;;;;;;;;;4972875;28;20038;-84
2023/09/05 09:28:28;;;;;;;5.70;3.65;;;;;;;;;;4956279;28;20057;-82
2023/09/05 09:30:55;;;;;;;4.05;3.42;;;;;;;;;;4970231;28;20507;-83
2023/09/05 09:33:22;;;;;;;10.40;3.47;;;;;;;;;;4987603;28;20098;-83
2023/09/05 09:36:03;;;;;;;4.32;3.30;;;;;;;;;;4969210;28;20034;-83
2023/09/05 09:38:29;;;;;;;9.68;3.30;;;;;;;;;;4970612;28;20118;-83
2023/09/05 09:40:56;;;;;;;6.97;3.28;;;;;;;;;;4985780;28;20078;-83
2023/09/05 09:43:22;;;;;;;3.10;2.90;;;;;;;;;;4956380;28;20122;-83
2023/09/05 09:45:48;;;;;;;3.50;3.20;;;;;;;;;;4985921;28;20065;-81
2023/09/05 09:48:14;;;;;;;5.22;3.15;;;;;;;;;;4967300;28;20697;-83
2023/09/05 09:50:43;;;;;;;5.82;3.50;;;;;;;;;;4935487;28;20048;-82
2023/09/05 09:53:11;;;;;;;5.25;3.35;;;;;;;;;;4966756;28;20392;-83
2023/09/05 09:55:39;;;;;;;4.75;2.90;;;;;;;;;;4967024;28;20045;-83
2023/09/05 09:58:06;;;;;;;4.10;2.90;;;;;;;;;;4983473;28;20117;-82
2023/09/05 10:00:35;;;;;;;4.57;2.83;;;;;;;;;;4984474;28;20098;-84
2023/09/05 10:03:04;;;;;;;2.70;2.50;;;;;;;;;;4982875;28;20121;-83
2023/09/05 10:05:30;;;;;;;5.70;2.55;;;;;;;;;;4965161;28;20054;-83
2023/09/05 10:07:56;;;;;;;6.00;2.70;;;;;;;;;;4967189;28;20138;-84
2023/09/05 10:10:22;;;;;;;2.60;2.40;;;;;;;;;;4970338;28;20050;-83
2023/09/05 10:12:48;;;;;;;3.17;2.97;;;;;;;;;;4950700;28;20035;-85
2023/09/05 10:15:15;;;;;;;6.90;3.50;;;;;;;;;;4970506;28;20136;-82
2023/09/05 10:17:42;;;;;;;3.97;3.55;;;;;;;;;;4960281;28;20026;-81
2023/09/05 10:20:14;;;;;;;6.82;2.97;;;;;;;;;;4959349;28;20042;-83
2023/09/05 10:22:43;;;;;;;6.35;3.10;;;;;;;;;;4965444;28;20039;-83
2023/09/05 10:25:09;;;;;;;3.00;2.78;;;;;;;;;;4946237;28;20038;-83
2023/09/05 10:27:35;;;;;;;4.07;2.40;;;;;;;;;;4969687;28;20058;-83
2023/09/05 10:30:01;;;;;;;2.70;2.50;;;;;;;;;;4964688;28;20057;-82
2023/09/05 10:32:32;;;;;;;5.73;3.40;;;;;;;;;;4920438;29;20031;-82
2023/09/05 10:35:02;;;;;;;2.60;2.38;;;;;;;;;;4976284;28;20050;-84
2023/09/05 10:37:49;;;;;;;4.13;2.50;;;;;;;;;;4966153;28;20486;-84
2023/09/05 10:40:16;;;;;;;2.50;2.30;;;;;;;;;;4932467;28;20597;-83
2023/09/05 10:42:50;;;;;;;3.13;2.15;;;;;;;;;;4946977;28;20034;-83
2023/09/05 10:45:17;;;;;;;2.15;2.03;;;;;;;;;;4979505;28;20173;-83
2023/09/05 10:47:43;;;;;;;6.90;2.10;;;;;;;;;;4980088;28;20035;-83
2023/09/05 10:50:10;;;;;;;3.58;2.05;;;;;;;;;;4962226;28;20049;-83
2023/09/05 10:52:36;;;;;;;2.17;2.08;;;;;;;;;;4946269;28;20506;-83
2023/09/05 10:55:21;;;;;;;4.13;1.90;;;;;;;;;;4980008;28;20053;-82
2023/09/05 10:57:50;;;;;;;2.72;2.53;;;;;;;;;;4979828;28;20038;-84
2023/09/05 11:00:38;;;;;;;3.38;2.47;;;;;;;;;;4981403;28;20031;-84
2023/09/05 11:03:12;;;;;;;2.67;2.47;;;;;;;;;;4985284;28;20089;-84
2023/09/05 11:05:40;;;;;;;2.58;2.38;;;;;;;;;;4933145;28;20132;-83
2023/09/05 11:08:27;;;;;;;2.28;2.15;;;;;;;;;;4980346;28;20077;-82
2023/09/05 11:10:55;;;;;;;4.88;3.22;;;;;;;;;;4981145;28;20043;-84
2023/09/05 11:13:21;;;;;;;5.15;2.70;;;;;;;;;;4930618;28;20035;-82
2023/09/05 11:15:47;;;;;;;3.85;2.70;;;;;;;;;;4963258;28;20122;-83
2023/09/05 11:18:14;;;;;;;2.50;2.30;;;;;;;;;;4980838;28;20068;-82
2023/09/05 11:20:44;;;;;;;2.80;2.60;;;;;;;;;;4964358;28;20038;-81
2023/09/05 11:23:17;;;;;;;2.40;2.20;;;;;;;;;;4963935;28;20105;-83
2023/09/05 11:25:44;;;;;;;2.42;2.22;;;;;;;;;;4982276;28;20042;-84
2023/09/05 11:28:11;;;;;;;13.07;10.43;;;;;;;;;;4980847;28;20046;-83
2023/09/05 11:30:37;;;;;;;2.65;2.50;;;;;;;;;;4982391;28;20042;-83
2023/09/05 11:33:13;;;;;;;3.70;2.63;;;;;;;;;;4948230;28;20054;-83
2023/09/05 11:35:46;;;;;;;4.30;3.78;;;;;;;;;;4963899;28;20042;-83
2023/09/05 11:38:14;;;;;;;2.85;2.50;;;;;;;;;;4978993;28;20537;-83
2023/09/05 11:40:49;;;;;;;3.05;2.75;;;;;;;;;;4946690;28;20167;-82
2023/09/05 11:43:14;;;;;;;5.38;3.13;;;;;;;;;;4963794;28;20039;-83
2023/09/05 11:45:43;;;;;;;7.55;3.00;;;;;;;;;;4963930;28;20035;-83
2023/09/05 11:48:14;;;;;;;4.37;3.17;;;;;;;;;;4980131;28;20039;-83
2023/09/05 11:50:41;;;;;;;5.47;2.90;;;;;;;;;;4964038;28;20310;-82
2023/09/05 11:53:10;;;;;;;3.30;3.00;;;;;;;;;;4932425;28;20061;-83
2023/09/05 11:55:36;;;;;;;2.90;2.67;;;;;;;;;;4963894;28;20407;-84
2023/09/05 11:58:02;;;;;;;4.10;2.65;;;;;;;;;;4980660;28;20043;-83
2023/09/05 12:00:28;;;;;;;4.88;2.80;;;;;;;;;;4980629;28;20507;-82
2023/09/05 12:02:55;;;;;;;3.22;2.72;;;;;;;;;;4981500;28;20042;-82
2023/09/05 12:05:22;;;;;;;2.72;2.50;;;;;;;;;;4967441;28;20134;-82
2023/09/05 12:07:48;;;;;;;3.70;3.03;;;;;;;;;;4964825;28;20065;-82
2023/09/05 12:10:14;;;;;;;3.55;3.20;;;;;;;;;;4981536;28;20038;-83
2023/09/05 12:12:50;;;;;;;3.90;2.72;;;;;;;;;;4948306;28;20137;-82
2023/09/05 12:15:17;;;;;;;5.75;3.00;;;;;;;;;;4961196;28;20050;-82
2023/09/05 12:17:45;;;;;;;2.55;2.35;;;;;;;;;;4976382;28;20406;-84
2023/09/05 12:20:11;;;;;;;4.03;2.83;;;;;;;;;;4946039;28;20046;-83
2023/09/05 12:22:37;;;;;;;5.65;3.20;;;;;;;;;;4979471;28;20510;-82
2023/09/05 12:25:10;;;;;;;3.35;2.83;;;;;;;;;;4978555;28;20113;-83
2023/09/05 12:27:36;;;;;;;7.40;2.72;;;;;;;;;;4974208;28;20032;-83
2023/09/05 12:30:02;;;;;;;3.17;2.88;;;;;;;;;;4974908;28;20043;-82
2023/09/05 12:32:30;;;;;;;3.20;2.70;;;;;;;;;;4978763;28;20039;-83
2023/09/05 12:34:56;;;;;;;2.75;2.55;;;;;;;;;;4980843;28;20430;-82
2023/09/05 12:37:22;;;;;;;3.50;2.40;;;;;;;;;;4964448;28;20031;-82
2023/09/05 12:39:50;;;;;;;3.40;2.75;;;;;;;;;;4964004;28;20060;-83
2023/09/05 12:42:16;;;;;;;13.02;3.08;;;;;;;;;;4978965;28;20121;-82
2023/09/05 12:44:42;;;;;;;3.10;2.75;;;;;;;;;;4962219;28;20042;-82
2023/09/05 12:47:08;;;;;;;3.03;2.83;;;;;;;;;;4960195;28;20042;-83
2023/09/05 12:49:37;;;;;;;2.97;2.63;;;;;;;;;;4979008;28;20051;-82
2023/09/05 12:52:09;;;;;;;3.78;3.00;;;;;;;;;;4976961;28;20121;-82
2023/09/05 12:54:36;;;;;;;3.92;2.97;;;;;;;;;;4980014;28;20062;-83
2023/09/05 12:57:05;;;;;;;3.42;3.10;;;;;;;;;;4959589;28;20035;-83
2023/09/05 12:59:31;;;;;;;3.20;2.88;;;;;;;;;;4964023;28;20038;-83
2023/09/05 13:01:58;;;;;;;3.30;2.80;;;;;;;;;;4982046;28;20050;-82
2023/09/05 13:04:24;;;;;;;3.30;3.00;;;;;;;;;;4947941;28;20038;-83
2023/09/05 13:06:50;;;;;;;4.10;3.20;;;;;;;;;;4985967;28;20050;-83
2023/09/05 13:09:16;;;;;;;4.97;2.75;;;;;;;;;;4948129;28;20035;-83
2023/09/05 13:11:42;;;;;;;3.38;3.08;;;;;;;;;;4950010;28;20031;-84
2023/09/05 13:14:11;;;;;;;3.00;2.80;;;;;;;;;;4949260;28;20094;-83
2023/09/05 13:16:38;;;;;;;6.47;5.87;;;;;;;;;;4965565;28;20035;-83
2023/09/05 13:19:04;;;;;;;5.40;3.38;;;;;;;;;;4965820;28;20129;-83
2023/09/05 13:21:30;;;;;;;5.95;3.47;;;;;;;;;;4975174;28;20093;-82
2023/09/05 13:23:58;;;;;;;3.70;3.30;;;;;;;;;;4992581;28;20042;-82
2023/09/05 13:26:24;;;;;;;5.20;4.70;;;;;;;;;;4974746;28;20031;-82
2023/09/05 13:28:51;;;;;;;6.18;3.65;;;;;;;;;;4967926;28;20042;-83
2023/09/05 13:31:17;;;;;;;4.07;3.70;;;;;;;;;;4982127;28;20446;-83
2023/09/05 13:33:43;;;;;;;4.40;3.80;;;;;;;;;;4981784;28;20125;-82
2023/09/05 13:36:09;;;;;;;9.82;3.38;;;;;;;;;;4966034;28;20035;-83
2023/09/05 13:38:35;;;;;;;5.43;3.22;;;;;;;;;;4951376;28;20137;-84
2023/09/05 13:41:01;;;;;;;3.55;3.25;;;;;;;;;;4983175;28;20522;-83
2023/09/05 13:43:27;;;;;;;9.32;3.33;;;;;;;;;;4983420;28;20109;-83
2023/09/05 13:45:54;;;;;;;3.72;3.22;;;;;;;;;;4984077;28;20039;-84
2023/09/05 13:48:20;;;;;;;3.50;3.20;;;;;;;;;;4934201;28;20073;-84
2023/09/05 13:50:46;;;;;;;4.63;2.80;;;;;;;;;;4983229;28;20070;-83
2023/09/05 13:53:12;;;;;;;3.92;3.60;;;;;;;;;;4966115;28;20098;-83
2023/09/05 13:55:38;;;;;;;3.30;3.00;;;;;;;;;;4985133;28;20035;-83
2023/09/05 13:58:06;;;;;;;3.25;3.00;;;;;;;;;;4986426;28;20062;-83
2023/09/05 14:00:33;;;;;;;3.30;3.10;;;;;;;;;;4953216;28;20034;-83
2023/09/05 14:02:59;;;;;;;3.75;3.30;;;;;;;;;;4984410;28;20038;-84
2023/09/05 14:05:25;;;;;;;5.72;3.40;;;;;;;;;;4986361;28;20061;-83
2023/09/05 14:07:51;;;;;;;3.65;2.90;;;;;;;;;;4969607;28;20035;-84
2023/09/05 14:10:17;;;;;;;4.68;3.30;;;;;;;;;;4988401;28;20042;-83
2023/09/05 14:12:44;;;;;;;3.20;3.00;;;;;;;;;;4955234;28;20031;-83
2023/09/05 14:15:10;;;;;;;7.72;3.30;;;;;;;;;;4939846;28;20126;-83
2023/09/05 14:17:36;;;;;;;3.70;3.40;;;;;;;;;;4964797;28;20106;-81
2023/09/05 14:20:02;;;;;;;4.10;3.17;;;;;;;;;;4976905;28;20047;-81
2023/09/05 14:22:29;;;;;;;3.85;3.55;;;;;;;;;;4941474;28;20027;-81
2023/09/05 14:24:55;;;;;;;4.80;3.30;;;;;;;;;;4956962;28;20046;-81
2023/09/05 14:27:22;;;;;;;8.02;3.45;;;;;;;;;;4973986;28;20475;-81
2023/09/05 14:29:49;;;;;;;3.80;3.50;;;;;;;;;;4956798;28;20105;-82
2023/09/05 14:32:15;;;;;;;5.80;3.38;;;;;;;;;;4940662;28;20034;-81
2023/09/05 14:34:40;;;;;;;5.18;3.10;;;;;;;;;;4956324;28;20066;-80
2023/09/05 14:37:07;;;;;;;3.83;3.38;;;;;;;;;;4955941;28;20039;-81
2023/09/05 14:39:33;;;;;;;3.70;3.40;;;;;;;;;;4942766;28;20039;-82
2023/09/05 14:41:59;;;;;;;4.85;4.43;;;;;;;;;;4975207;28;20046;-82
2023/09/05 14:44:25;;;;;;;4.80;4.40;;;;;;;;;;4955932;28;20544;-82
2023/09/05 14:46:51;;;;;;;6.97;5.50;;;;;;;;;;4940584;28;20102;-82